createdAt,value
2019-04-14T00:01:36.959Z,98553.17
2019-04-14T00:04:18.729Z,98548.84
2019-04-14T00:06:51.182Z,98547.57
2019-04-14T00:09:23.220Z,98548.42
2019-04-14T00:11:56.945Z,98547.57
2019-04-14T00:14:29.390Z,98550.27
2019-04-14T00:17:02.134Z,98549.42
2019-04-14T00:19:34.888Z,98549.45
2019-04-14T00:22:07.317Z,98546.38
2019-04-14T00:24:40.258Z,98545.48
2019-04-14T00:27:12.815Z,98549.45
2019-04-14T00:29:45.768Z,98551.16
2019-04-14T00:32:18.331Z,98552.02
2019-04-14T00:35:16.665Z,98546.26
2019-04-14T00:38:13.692Z,98544.09
2019-04-14T00:40:52.507Z,98547.57
2019-04-14T00:43:46.100Z,98542.74
2019-04-14T00:46:27.882Z,98538.77
2019-04-14T00:49:00.591Z,98539.16
2019-04-14T00:51:33.131Z,98535.67
2019-04-14T00:54:06.526Z,98538.73
2019-04-14T00:56:39.024Z,98544.02
2019-04-14T00:59:11.464Z,98535.72
2019-04-14T01:01:43.770Z,98540.97
2019-04-14T01:04:16.540Z,98537.92
2019-04-14T01:06:49.044Z,98540.16
2019-04-14T01:09:21.650Z,98538.84
2019-04-14T01:11:53.768Z,98536.72
2019-04-14T01:14:25.827Z,98538.53
2019-04-14T01:16:58.043Z,98541.59
2019-04-14T01:19:30.939Z,98541.20
2019-04-14T01:22:03.218Z,98541.20
2019-04-14T01:24:35.974Z,98535.09
2019-04-14T01:27:08.214Z,98536.87
2019-04-14T01:29:40.525Z,98536.94
2019-04-14T01:32:13.293Z,98536.52
2019-04-14T01:34:45.618Z,98538.30
2019-04-14T01:37:17.973Z,98537.02
2019-04-14T01:39:50.353Z,98534.81
2019-04-14T01:42:22.405Z,98536.55
2019-04-14T01:44:54.751Z,98538.36
2019-04-14T01:47:27.071Z,98534.00
2019-04-14T01:49:59.477Z,98541.45
2019-04-14T01:52:59.180Z,98535.73
2019-04-14T01:55:46.258Z,98539.29
2019-04-14T01:58:25.064Z,98535.42
2019-04-14T02:01:14.963Z,98537.73
2019-04-14T02:03:47.793Z,98539.11
2019-04-14T02:06:20.468Z,98533.47
2019-04-14T02:08:54.720Z,98533.97
2019-04-14T02:11:27.065Z,98532.27
2019-04-14T02:13:59.400Z,98528.33
2019-04-14T02:16:39.763Z,98527.58
2019-04-14T02:19:06.620Z,98533.22
2019-04-14T02:21:38.960Z,98526.23
2019-04-14T02:24:11.415Z,98534.92
2019-04-14T02:26:43.913Z,98534.89
2019-04-14T02:29:16.841Z,98533.22
2019-04-14T02:32:17.380Z,98540.66
2019-04-14T02:34:49.784Z,98537.61
2019-04-14T02:37:26.708Z,98535.41
2019-04-14T02:40:01.003Z,98538.04
2019-04-14T02:53:05.216Z,98539.74
2019-04-14T02:55:15.319Z,98534.03
2019-04-14T02:57:52.658Z,98535.84
2019-04-14T03:00:35.666Z,98532.72
2019-04-14T03:02:59.554Z,98536.73
2019-04-14T03:05:37.686Z,98535.34
2019-04-14T03:08:06.486Z,98533.15
2019-04-14T03:10:40.283Z,98531.88
2019-04-14T03:16:13.741Z,98535.81
2019-04-14T03:21:43.832Z,98535.67
2019-04-14T03:24:31.721Z,98531.80
2019-04-14T03:27:15.196Z,98533.94
2019-04-14T03:29:59.949Z,98537.48
2019-04-14T03:33:14.165Z,98534.00
2019-04-14T03:35:20.017Z,98532.63
2019-04-14T03:37:48.492Z,98540.45
2019-04-14T03:40:08.820Z,98533.90
2019-04-14T03:42:45.969Z,98535.67
2019-04-14T03:45:28.346Z,98539.11
2019-04-14T03:48:15.193Z,98543.94
2019-04-14T03:53:08.165Z,98541.73
2019-04-14T03:55:25.493Z,98546.59
2019-04-14T03:57:45.462Z,98545.25
2019-04-14T04:00:18.069Z,98546.13
2019-04-14T04:02:51.176Z,98542.20
2019-04-14T04:05:23.806Z,98550.89
2019-04-14T04:07:56.065Z,98542.98
2019-04-14T04:10:29.208Z,98548.59
2019-04-14T04:13:01.960Z,98546.31
2019-04-14T04:15:34.403Z,98548.38
2019-04-14T04:18:20.280Z,98546.94
2019-04-14T04:21:13.988Z,98551.63
2019-04-14T04:23:56.083Z,98551.52
2019-04-14T04:26:38.676Z,98556.66
2019-04-14T04:29:15.780Z,98554.80
2019-04-14T04:32:05.587Z,98547.30
2019-04-14T04:34:59.915Z,98554.64
2019-04-14T04:38:03.049Z,98555.78
2019-04-14T04:40:35.384Z,98549.90
2019-04-14T04:43:07.972Z,98558.69
2019-04-14T04:45:40.887Z,98559.23
2019-04-14T04:48:13.213Z,98557.40
2019-04-14T04:50:45.398Z,98561.72
2019-04-14T04:53:18.097Z,98552.86
2019-04-14T04:55:50.761Z,98560.75
2019-04-14T04:58:22.733Z,98565.91
2019-04-14T05:00:57.352Z,98556.46
2019-04-14T05:03:29.752Z,98561.17
2019-04-14T05:07:09.716Z,98571.69
2019-04-14T05:10:06.755Z,98573.38
2019-04-14T05:12:48.143Z,98575.50
2019-04-14T05:15:31.537Z,98589.32
2019-04-14T05:18:04.596Z,98580.81
2019-04-14T05:20:37.778Z,98575.65
2019-04-14T05:23:10.256Z,98580.95
2019-04-14T05:25:43.027Z,98590.98
2019-04-14T05:28:15.582Z,98585.56
2019-04-14T05:30:48.329Z,98586.41
2019-04-14T05:33:20.710Z,98581.98
2019-04-14T05:35:53.216Z,98582.16
2019-04-14T05:38:26.161Z,98588.05
2019-04-14T05:41:00.328Z,98581.89
2019-04-14T05:43:40.613Z,98582.67
2019-04-14T05:46:06.236Z,98573.74
2019-04-14T05:48:38.261Z,98581.70
2019-04-14T05:51:10.983Z,98588.48
2019-04-14T05:53:43.832Z,98588.62
2019-04-14T05:56:16.443Z,98595.29
2019-04-14T05:58:49.326Z,98595.05
2019-04-14T06:01:22.361Z,98593.52
2019-04-14T06:03:54.562Z,98596.63
2019-04-14T06:06:26.716Z,98600.17
2019-04-14T06:08:58.935Z,98602.70
2019-04-14T06:11:31.218Z,98601.33
2019-04-14T06:14:03.250Z,98599.86
2019-04-14T06:16:35.256Z,98612.64
2019-04-14T06:19:08.654Z,98602.42
2019-04-14T06:21:42.742Z,98605.95
2019-04-14T06:24:14.802Z,98601.63
2019-04-14T06:26:46.927Z,98604.89
2019-04-14T06:29:18.907Z,98605.73
2019-04-14T06:32:19.981Z,98602.30
2019-04-14T06:35:09.396Z,98597.89
2019-04-14T06:37:53.878Z,98600.64
2019-04-14T06:40:26.990Z,98596.03
2019-04-14T06:42:58.957Z,98592.70
2019-04-14T06:45:30.908Z,98588.97
2019-04-14T06:48:02.924Z,98588.20
2019-04-14T06:50:35.018Z,98582.11
2019-04-14T06:53:07.152Z,98589.95
2019-04-14T06:55:39.141Z,98586.95
2019-04-14T06:58:11.300Z,98583.83
2019-04-14T07:00:43.273Z,98576.20
2019-04-14T07:03:15.255Z,98578.39
2019-04-14T07:05:47.239Z,98586.30
2019-04-14T07:08:19.182Z,98591.47
2019-04-14T07:10:51.277Z,98584.63
2019-04-14T07:13:23.256Z,98579.17
2019-04-14T07:15:56.734Z,98592.91
2019-04-14T07:18:28.759Z,98593.50
2019-04-14T07:21:01.017Z,98593.61
2019-04-14T07:23:33.009Z,98590.98
2019-04-14T07:26:05.175Z,98591.98
2019-04-14T07:28:37.165Z,98586.59
2019-04-14T07:31:23.767Z,98577.27
2019-04-14T07:34:04.170Z,98570.67
2019-04-14T07:36:54.997Z,98567.33
2019-04-14T07:39:45.892Z,98583.22
2019-04-14T07:42:30.224Z,98579.88
2019-04-14T07:45:39.175Z,98587.00
2019-04-14T07:48:15.976Z,98595.63
2019-04-14T07:50:56.558Z,98590.70
2019-04-14T07:53:56.592Z,98594.33
2019-04-14T07:56:50.437Z,98603.82
2019-04-14T07:59:41.266Z,98596.91
2019-04-14T08:02:22.527Z,98597.92
2019-04-14T08:05:00.775Z,98606.83
2019-04-14T08:07:32.736Z,98602.67
2019-04-14T08:10:04.816Z,98605.53
2019-04-14T08:12:38.337Z,98599.47
2019-04-14T08:15:10.587Z,98598.95
2019-04-14T08:17:43.709Z,98612.91
2019-04-14T08:20:26.931Z,98618.56
2019-04-14T08:22:50.689Z,98616.00
2019-04-14T08:25:22.743Z,98606.63
2019-04-14T08:27:54.842Z,98611.59
2019-04-14T08:30:27.926Z,98602.69
2019-04-14T08:33:00.438Z,98609.26
2019-04-14T08:35:32.392Z,98599.63
2019-04-14T08:38:04.609Z,98598.39
2019-04-14T08:40:36.576Z,98623.66
2019-04-14T08:43:26.094Z,98618.92
2019-04-14T08:46:13.535Z,98624.28
2019-04-14T08:48:52.252Z,98634.63
2019-04-14T08:51:28.647Z,98612.63
2019-04-14T08:54:06.807Z,98611.76
2019-04-14T08:57:00.759Z,98602.02
2019-04-14T08:59:50.325Z,98593.05
2019-04-14T09:02:47.472Z,98576.86
2019-04-14T09:05:41.668Z,98575.36
2019-04-14T09:08:32.508Z,98570.69
2019-04-14T09:11:05.933Z,98574.09
2019-04-14T09:13:37.999Z,98559.73
2019-04-14T09:16:10.408Z,98561.52
2019-04-14T09:18:42.405Z,98558.88
2019-04-14T09:21:14.423Z,98559.52
2019-04-14T09:23:46.422Z,98574.95
2019-04-14T09:26:18.463Z,98569.62
2019-04-14T09:28:50.803Z,98575.02
2019-04-14T09:31:22.833Z,98571.59
2019-04-14T09:33:54.878Z,98570.73
2019-04-14T09:36:26.908Z,98572.41
2019-04-14T09:38:58.909Z,98576.96
2019-04-14T09:41:30.965Z,98571.13
2019-04-14T09:44:02.943Z,98575.52
2019-04-14T09:46:35.132Z,98583.80
2019-04-14T09:49:07.338Z,98584.98
2019-04-14T09:51:40.025Z,98581.91
2019-04-14T09:54:12.015Z,98585.98
2019-04-14T09:56:44.012Z,98587.97
2019-04-14T09:59:15.981Z,98583.63
2019-04-14T10:01:48.073Z,98568.39
2019-04-14T10:04:20.412Z,98590.28
2019-04-14T10:06:52.368Z,98576.50
2019-04-14T10:09:24.457Z,98573.63
2019-04-14T10:11:59.393Z,98578.88
2019-04-14T10:14:31.397Z,98580.02
2019-04-14T10:17:03.418Z,98572.53
2019-04-14T10:19:35.409Z,98570.12
2019-04-14T10:22:07.455Z,98569.51
2019-04-14T10:24:39.530Z,98562.84
2019-04-14T10:27:11.665Z,98560.70
2019-04-14T10:29:44.905Z,98567.37
2019-04-14T10:32:16.877Z,98571.42
2019-04-14T10:34:48.833Z,98582.28
2019-04-14T10:37:21.265Z,98570.11
2019-04-14T10:39:53.288Z,98564.97
2019-04-14T10:42:25.321Z,98573.38
2019-04-14T10:44:57.293Z,98568.48
2019-04-14T10:47:29.415Z,98565.72
2019-04-14T10:50:01.519Z,98576.30
2019-04-14T10:52:33.529Z,98569.24
2019-04-14T10:55:05.967Z,98565.59
2019-04-14T10:57:38.005Z,98564.50
2019-04-14T11:00:14.387Z,98554.31
2019-04-14T11:02:46.870Z,98569.00
2019-04-14T11:05:18.833Z,98552.81
2019-04-14T11:07:51.277Z,98561.24
2019-04-14T11:10:23.435Z,98563.30
2019-04-14T11:12:55.430Z,98559.86
2019-04-14T11:15:27.474Z,98555.33
2019-04-14T11:17:59.514Z,98596.28
2019-04-14T11:20:31.492Z,98574.95
2019-04-14T11:23:03.868Z,98581.70
2019-04-14T11:25:36.591Z,98578.77
2019-04-14T11:28:08.590Z,98592.24
2019-04-14T11:30:40.825Z,98581.52
2019-04-14T11:33:21.629Z,98606.19
2019-04-14T11:36:12.540Z,98587.59
2019-04-14T11:38:49.677Z,98583.61
2019-04-14T11:41:23.490Z,98587.31
2019-04-14T11:43:55.466Z,98586.50
2019-04-14T11:46:27.599Z,98593.23
2019-04-14T11:49:00.133Z,98592.45
2019-04-14T11:51:32.292Z,98598.32
2019-04-14T11:54:04.628Z,98605.69
2019-04-14T11:56:36.743Z,98595.49
2019-04-14T11:59:08.863Z,98598.78
2019-04-14T12:01:59.201Z,98617.13
2019-04-14T12:04:34.955Z,98596.67
2019-04-14T12:07:16.201Z,98618.55
2019-04-14T12:09:57.021Z,98595.11
2019-04-14T12:12:29.095Z,98620.86
2019-04-14T12:15:01.246Z,98604.51
2019-04-14T12:17:33.255Z,98604.94
2019-04-14T12:20:06.888Z,98606.09
2019-04-14T12:22:38.918Z,98609.61
2019-04-14T12:25:11.853Z,98600.96
2019-04-14T12:27:44.356Z,98601.50
2019-04-14T12:30:17.934Z,98602.91
2019-04-14T12:32:50.366Z,98591.86
2019-04-14T12:35:22.418Z,98604.80
2019-04-14T12:37:54.492Z,98606.56
2019-04-14T12:40:26.733Z,98611.27
2019-04-14T12:43:22.415Z,98601.91
2019-04-14T12:46:28.445Z,98605.31
2019-04-14T12:49:08.432Z,98602.48
2019-04-14T12:51:47.853Z,98606.77
2019-04-14T12:54:19.953Z,98599.34
2019-04-14T12:56:52.942Z,98599.26
2019-04-14T12:59:25.092Z,98594.41
2019-04-14T13:02:18.731Z,98607.75
2019-04-14T13:04:51.131Z,98601.28
2019-04-14T13:07:23.065Z,98602.75
2019-04-14T13:09:55.097Z,98599.73
2019-04-14T13:12:27.135Z,98595.95
2019-04-14T13:14:59.216Z,98593.27
2019-04-14T13:17:31.272Z,98618.17
2019-04-14T13:20:03.301Z,98595.55
2019-04-14T13:22:35.426Z,98595.10
2019-04-14T13:25:08.290Z,98590.46
2019-04-14T13:27:40.640Z,98591.30
2019-04-14T13:30:14.811Z,98586.06
2019-04-14T13:32:46.869Z,98600.64
2019-04-14T13:35:18.942Z,98584.84
2019-04-14T13:37:51.340Z,98593.86
2019-04-14T13:40:23.388Z,98591.87
2019-04-14T13:42:55.391Z,98597.63
2019-04-14T13:45:27.405Z,98603.21
2019-04-14T13:47:59.512Z,98596.84
2019-04-14T13:50:31.770Z,98590.36
2019-04-14T13:53:03.898Z,98584.00
2019-04-14T13:55:35.886Z,98581.88
2019-04-14T13:58:07.879Z,98586.81
2019-04-14T14:00:39.851Z,98596.14
2019-04-14T14:03:11.913Z,98595.33
2019-04-14T14:05:44.021Z,98574.95
2019-04-14T14:08:16.031Z,98583.36
2019-04-14T14:10:48.008Z,98574.73
2019-04-14T14:13:48.086Z,98584.39
2019-04-14T14:16:40.022Z,98586.48
2019-04-14T14:19:31.522Z,98586.99
2019-04-14T14:22:13.395Z,98604.33
2019-04-14T14:25:01.559Z,98603.05
2019-04-14T14:27:33.732Z,98606.35
2019-04-14T14:30:06.293Z,98594.86
2019-04-14T14:32:42.874Z,98615.50
2019-04-14T14:35:14.940Z,98606.48
2019-04-14T14:37:46.969Z,98609.97
2019-04-14T14:40:20.813Z,98598.83
2019-04-14T14:42:52.998Z,98601.85
2019-04-14T14:45:49.787Z,98608.75
2019-04-14T14:48:25.365Z,98606.09
2019-04-14T14:51:17.940Z,98598.91
2019-04-14T14:53:50.045Z,98608.72
2019-04-14T14:56:22.161Z,98622.08
2019-04-14T14:58:54.141Z,98636.94
2019-04-14T15:01:26.245Z,98616.16
2019-04-14T15:03:58.406Z,98620.00
2019-04-14T15:06:30.496Z,98611.47
2019-04-14T15:09:05.132Z,98622.07
2019-04-14T15:11:37.281Z,98608.45
2019-04-14T15:14:09.276Z,98626.38
2019-04-14T15:16:41.416Z,98625.66
2019-04-14T15:19:13.568Z,98636.09
2019-04-14T15:21:45.701Z,98617.06
2019-04-14T15:24:17.714Z,98617.23
2019-04-14T15:26:52.140Z,98630.39
2019-04-14T15:29:25.949Z,98625.61
2019-04-14T15:31:58.144Z,98621.08
2019-04-14T15:34:30.460Z,98629.61
2019-04-14T15:37:02.534Z,98619.67
2019-04-14T15:39:37.408Z,98624.28
2019-04-14T15:42:08.212Z,98624.20
2019-04-14T15:44:40.700Z,98631.95
2019-04-14T15:47:14.236Z,98627.97
2019-04-14T15:49:46.403Z,98638.21
2019-04-14T15:52:18.577Z,98627.34
2019-04-14T15:54:51.014Z,98631.48
2019-04-14T15:57:44.761Z,98639.55
2019-04-14T16:00:40.198Z,98628.27
2019-04-14T16:03:23.465Z,98649.48
2019-04-14T16:06:12.864Z,98643.09
2019-04-14T16:08:51.877Z,98648.02
2019-04-14T16:11:54.863Z,98641.05
2019-04-14T16:14:57.760Z,98638.78
2019-04-14T16:17:50.283Z,98649.26
2019-04-14T16:20:26.147Z,98665.25
2019-04-14T16:22:58.148Z,98653.63
2019-04-14T16:25:54.339Z,98650.47
2019-04-14T16:28:48.229Z,98656.31
2019-04-14T16:31:44.307Z,98650.30
2019-04-14T16:34:29.479Z,98652.64
2019-04-14T16:37:01.425Z,98661.42
2019-04-14T16:39:33.537Z,98671.38
2019-04-14T16:42:05.567Z,98669.13
2019-04-14T16:44:37.575Z,98659.98
2019-04-14T16:47:09.572Z,98668.75
2019-04-14T16:49:41.549Z,98683.98
2019-04-14T16:52:42.680Z,98682.41
2019-04-14T16:55:23.790Z,98685.70
2019-04-14T16:58:13.315Z,98694.94
2019-04-14T17:00:48.813Z,98689.56
2019-04-14T17:03:21.188Z,98691.89
2019-04-14T17:05:53.324Z,98691.34
2019-04-14T17:08:25.321Z,98702.70
2019-04-14T17:10:57.312Z,98693.84
2019-04-14T17:13:31.667Z,98700.23
2019-04-14T17:16:28.365Z,98710.28
2019-04-14T17:19:07.389Z,98702.12
2019-04-14T17:21:50.325Z,98710.84
2019-04-14T17:24:35.302Z,98710.27
2019-04-14T17:27:23.743Z,98710.07
2019-04-14T17:30:27.074Z,98709.50
2019-04-14T17:33:33.203Z,98709.73
2019-04-14T17:36:12.241Z,98716.67
2019-04-14T17:39:08.962Z,98720.91
2019-04-14T17:42:09.161Z,98728.18
2019-04-14T17:45:12.418Z,98717.95
2019-04-14T17:47:50.520Z,98729.28
2019-04-14T17:50:40.837Z,98740.50
2019-04-14T17:53:34.487Z,98743.25
2019-04-14T17:56:13.448Z,98759.27
2019-04-14T17:59:01.685Z,98755.45
2019-04-14T18:01:52.997Z,98759.58
2019-04-14T18:04:32.825Z,98761.13
2019-04-14T18:07:13.795Z,98759.11
2019-04-14T18:10:04.745Z,98767.67
2019-04-14T18:12:45.453Z,98774.00
2019-04-14T18:15:39.634Z,98780.86
2019-04-14T18:18:33.616Z,98784.06
2019-04-14T18:21:07.906Z,98794.02
2019-04-14T18:23:40.279Z,98794.66
2019-04-14T18:26:14.201Z,98797.94
2019-04-14T18:29:20.564Z,98796.33
2019-04-14T18:32:13.028Z,98808.25
2019-04-14T18:34:58.716Z,98800.52
2019-04-14T18:37:53.213Z,98805.02
2019-04-14T18:40:36.227Z,98815.44
2019-04-14T18:43:33.058Z,98818.58
2019-04-14T18:46:20.123Z,98817.50
2019-04-14T18:49:14.395Z,98831.63
2019-04-14T18:52:11.302Z,98831.41
2019-04-14T18:54:58.620Z,98835.61
2019-04-14T18:57:43.618Z,98838.16
2019-04-14T19:00:23.781Z,98832.77
2019-04-14T19:02:55.894Z,98838.41
2019-04-14T19:05:28.505Z,98838.27
2019-04-14T19:08:00.950Z,98845.95
2019-04-14T19:10:33.389Z,98847.33
2019-04-14T19:13:18.607Z,98844.50
2019-04-14T19:16:04.782Z,98848.15
2019-04-14T19:18:42.999Z,98855.94
2019-04-14T19:21:17.280Z,98852.49
2019-04-14T19:23:49.329Z,98867.59
2019-04-14T19:26:21.397Z,98858.37
2019-04-14T19:28:53.497Z,98862.48
2019-04-14T19:31:25.488Z,98858.32
2019-04-14T19:33:57.492Z,98868.09
2019-04-14T19:36:29.614Z,98867.76
2019-04-14T19:39:01.563Z,98871.45
2019-04-14T19:41:33.551Z,98866.75
2019-04-14T19:44:05.626Z,98866.95
2019-04-14T19:46:37.627Z,98873.71
2019-04-14T19:49:10.221Z,98877.48
2019-04-14T19:51:43.296Z,98880.66
2019-04-14T19:54:15.635Z,98874.52
2019-04-14T19:56:47.712Z,98876.83
2019-04-14T19:59:20.702Z,98878.80
2019-04-14T20:01:52.673Z,98881.54
2019-04-14T20:04:25.004Z,98882.48
2019-04-14T20:06:58.880Z,98879.22
2019-04-14T20:09:31.298Z,98883.64
2019-04-14T20:12:03.376Z,98889.39
2019-04-14T20:14:35.437Z,98886.32
2019-04-14T20:17:25.376Z,98897.38
2019-04-14T20:20:09.978Z,98902.39
2019-04-14T20:23:09.879Z,98898.78
2019-04-14T20:26:01.050Z,98898.56
2019-04-14T20:28:46.868Z,98904.81
2019-04-14T20:31:33.059Z,98909.23
2019-04-14T20:34:05.264Z,98906.42
2019-04-14T20:36:37.517Z,98915.64
2019-04-14T20:39:15.126Z,98914.88
2019-04-14T20:41:47.243Z,98915.25
2019-04-14T20:44:19.400Z,98917.63
2019-04-14T20:46:51.484Z,98927.34
2019-04-14T20:49:23.569Z,98920.45
2019-04-14T20:51:55.548Z,98924.94
2019-04-14T20:54:27.643Z,98932.09
2019-04-14T20:57:00.476Z,98927.25
2019-04-14T20:59:32.439Z,98932.16
2019-04-14T21:02:22.628Z,98934.94
2019-04-14T21:05:10.436Z,98928.97
2019-04-14T21:07:59.944Z,98927.65
2019-04-14T21:10:37.579Z,98925.55
2019-04-14T21:13:16.635Z,98931.27
2019-04-14T21:15:57.191Z,98930.48
2019-04-14T21:18:34.652Z,98937.13
2019-04-14T21:21:18.521Z,98934.99
2019-04-14T21:24:01.698Z,98932.39
2019-04-14T21:26:45.242Z,98933.71
2019-04-14T21:29:35.028Z,98942.13
2019-04-14T21:32:12.737Z,98940.84
2019-04-14T21:35:02.580Z,98943.59
2019-04-14T21:37:59.259Z,98947.14
2019-04-14T21:40:52.558Z,98941.46
2019-04-14T21:43:24.561Z,98946.78
2019-04-14T21:45:56.539Z,98946.96
2019-04-14T21:48:28.562Z,98944.73
2019-04-14T21:51:01.035Z,98946.16
2019-04-14T21:53:33.182Z,98940.53
2019-04-14T21:56:13.230Z,98951.94
2019-04-14T21:58:48.224Z,98944.08
2019-04-14T22:01:57.191Z,98954.16
2019-04-14T22:04:47.987Z,98955.11
2019-04-14T22:07:38.975Z,98955.08
2019-04-14T22:10:42.788Z,98951.62
2019-04-14T22:13:16.352Z,98958.27
2019-04-14T22:15:48.293Z,98957.84
2019-04-14T22:18:20.257Z,98956.58
2019-04-14T22:20:52.507Z,98960.98
2019-04-14T22:23:24.774Z,98964.48
2019-04-14T22:25:56.880Z,98969.80
2019-04-14T22:28:29.939Z,98970.22
2019-04-14T22:31:02.217Z,98973.38
2019-04-14T22:33:35.278Z,98972.09
2019-04-14T22:36:07.401Z,98971.63
2019-04-14T22:38:39.471Z,98970.82
2019-04-14T22:41:11.420Z,98971.73
2019-04-14T22:43:43.505Z,98971.75
2019-04-14T22:46:15.621Z,98971.37
2019-04-14T22:48:47.773Z,98973.09
2019-04-14T22:51:19.719Z,98975.38
2019-04-14T22:53:51.706Z,98975.41
2019-04-14T22:56:23.768Z,98978.56
2019-04-14T22:58:55.793Z,98979.86
2019-04-14T23:01:30.629Z,98979.00
2019-04-14T23:05:22.727Z,98972.80
2019-04-14T23:08:13.632Z,98975.49
2019-04-14T23:11:10.649Z,98975.98
2019-04-14T23:13:48.746Z,98973.88
2019-04-14T23:16:51.676Z,98972.17
2019-04-14T23:19:30.489Z,98973.51
2019-04-14T23:22:24.478Z,98971.34
2019-04-14T23:24:56.552Z,98967.00
2019-04-14T23:27:28.606Z,98967.94
2019-04-14T23:30:00.843Z,98970.55
2019-04-14T23:32:32.870Z,98971.45
2019-04-14T23:35:05.368Z,98974.97
2019-04-14T23:37:37.412Z,98971.52
2019-04-14T23:40:09.585Z,98969.37
2019-04-14T23:42:41.551Z,98968.03
2019-04-14T23:45:13.604Z,98968.88
2019-04-14T23:47:45.587Z,98976.38
2019-04-14T23:50:17.533Z,98972.94
2019-04-14T23:52:49.973Z,98973.41
2019-04-14T23:55:21.992Z,98973.87
2019-04-14T23:57:53.973Z,98984.80
